Ixtapa Zihuatanejo, Mexico

6:49 AM CDT on August 01, 2014 (GMT -0500)
Ixtapa-Zihuatanejo International (MMZH) Elev 20 ft | 17.60 °N, 101.46 °W | Change Station

Current weather conditions updated 10 hours ago

Cloudy
Cloudy
75 °F
Feels Like 75 °F
N
5
Wind Variable Wind from NNW
Gusts mph

Today is forecast to be nearly the same temperature as yesterday. Showers and thunderstorms late.

Today
High -- | Low -- °F
--% Chance of Precip.
Yesterday
High -- | Low -- °F
Precip. -- in
7:24 AM 8:19 PM
Waxing Crescent, 26% visible
Pressure 29.85 in
Visibility 7.0 miles
Clouds Scattered Clouds 25000 ft
Dew Point 68 °F
Humidity 76%
Rainfall 0.00 in
Snow Depth Not available.
UV 0 out of 12
Pollen Not available.
Air Quality Not available.
Flu Activity Not available.
METAR MMZH 010140Z 00000KT 7SM SCT250 27/23 A2985 RMK 8/002 CU NE

More Conditions Fewer Conditions

Pressure 29.85 in
Visibility 7.0 miles
Clouds Scattered Clouds 25000 ft
Dew Point 68 °F
Humidity 76%
Rainfall 0.00 in
Snow Depth Not available.
UV 0 out of 12
Pollen Not available.
Air Quality Not available.
Flu Activity Not available.
METAR MMZH 010140Z 00000KT 7SM SCT250 27/23 A2985 RMK 8/002 CU NE

More Conditions Fewer Conditions

10-Day Weather Forecast

Almanac

Astronomy

Aug. 01, 2014 Rise Set
Actual Time 7:24 AM CDT 8:19 PM CDT
Civil Twilight 7:01 AM CDT 8:42 PM CDT
Nautical Twilight 6:34 AM CDT 9:09 PM CDT
Astronomical Twilight 6:06 AM CDT 9:37 PM CDT
Moon 11:57 AM CDT No Moon Set
Length of Visible Light 13h 40m
Length of Day
12h 54m
Tomorrow will be 0m 45s shorter.
Waxing Crescent, 26% of the Moon is Illuminated
Today
Waxing Crescent
Aug 3
First Quarter
Aug 10
Full
Aug 17
Last Quarter
Aug 25
New

Yesterday's Extremes

Country Highs Country Lows

Community

WunderPhotos

Upload Photos

1,739,538 photos uploaded!

Nearby

Snow Depth

Not available.

Earthquake Activity

City Distance Mag. Time & Date
No recent earthquake activity has been reported nearby.
Minimum magnitude displayed is 2.5.

Coastal Water Temperatures

Place Temperature
No Stations Reporting

Nearby Weather Stations

There are no personal weather stations in this area.